sensor_id;sensor_type;location;lat;lon;timestamp;pressure;altitude;pressure_sealevel;temperature;humidity
67015;BME280;1033;52.560;13.374;2023-05-08T00:01:45;102140.34;;;8.10;81.80
67015;BME280;1033;52.560;13.374;2023-05-08T00:04:15;102139.03;;;8.14;81.21
67015;BME280;1033;52.560;13.374;2023-05-08T00:06:44;102131.50;;;8.18;80.96
67015;BME280;1033;52.560;13.374;2023-05-08T00:09:13;102136.66;;;8.11;81.43
67015;BME280;1033;52.560;13.374;2023-05-08T00:11:42;102129.88;;;8.07;81.41
67015;BME280;1033;52.560;13.374;2023-05-08T00:14:13;102125.09;;;8.01;81.57
67015;BME280;1033;52.560;13.374;2023-05-08T00:16:43;102127.66;;;8.03;81.43
67015;BME280;1033;52.560;13.374;2023-05-08T00:19:12;102131.03;;;8.05;81.13
67015;BME280;1033;52.560;13.374;2023-05-08T00:21:41;102129.13;;;7.97;81.50
67015;BME280;1033;52.560;13.374;2023-05-08T00:24:10;102139.06;;;7.97;81.37
67015;BME280;1033;52.560;13.374;2023-05-08T00:26:40;102142.22;;;7.92;81.89
67015;BME280;1033;52.560;13.374;2023-05-08T00:29:11;102138.13;;;7.88;82.06
67015;BME280;1033;52.560;13.374;2023-05-08T00:31:41;102142.81;;;7.86;82.28
67015;BME280;1033;52.560;13.374;2023-05-08T00:34:10;102144.00;;;7.83;82.50
67015;BME280;1033;52.560;13.374;2023-05-08T00:36:40;102138.88;;;7.80;82.96
67015;BME280;1033;52.560;13.374;2023-05-08T00:39:09;102144.06;;;7.74;83.20
67015;BME280;1033;52.560;13.374;2023-05-08T00:41:38;102150.38;;;7.82;82.92
67015;BME280;1033;52.560;13.374;2023-05-08T00:44:07;102141.19;;;7.75;83.50
67015;BME280;1033;52.560;13.374;2023-05-08T00:46:37;102151.06;;;7.67;83.75
67015;BME280;1033;52.560;13.374;2023-05-08T00:49:08;102154.84;;;7.74;83.43
67015;BME280;1033;52.560;13.374;2023-05-08T00:51:40;102158.28;;;7.66;83.42
67015;BME280;1033;52.560;13.374;2023-05-08T00:54:10;102160.97;;;7.66;82.96
67015;BME280;1033;52.560;13.374;2023-05-08T00:56:40;102161.03;;;7.57;83.69
67015;BME280;1033;52.560;13.374;2023-05-08T00:59:12;102158.66;;;7.54;83.69
67015;BME280;1033;52.560;13.374;2023-05-08T01:01:43;102159.59;;;7.62;82.96
67015;BME280;1033;52.560;13.374;2023-05-08T01:04:18;102162.03;;;7.56;82.99
67015;BME280;1033;52.560;13.374;2023-05-08T01:06:49;102166.56;;;7.55;83.26
67015;BME280;1033;52.560;13.374;2023-05-08T01:09:18;102160.38;;;7.55;82.74
67015;BME280;1033;52.560;13.374;2023-05-08T01:11:51;102165.19;;;7.51;83.04
67015;BME280;1033;52.560;13.374;2023-05-08T01:14:28;102162.66;;;7.50;82.85
67015;BME280;1033;52.560;13.374;2023-05-08T01:17:07;102163.22;;;7.53;82.95
67015;BME280;1033;52.560;13.374;2023-05-08T01:19:57;102165.25;;;7.41;83.16
67015;BME280;1033;52.560;13.374;2023-05-08T01:25:45;102160.28;;;7.19;84.76
67015;BME280;1033;52.560;13.374;2023-05-08T01:31:37;102166.22;;;7.23;84.75
67015;BME280;1033;52.560;13.374;2023-05-08T01:34:17;102168.44;;;7.27;84.01
67015;BME280;1033;52.560;13.374;2023-05-08T01:36:52;102167.38;;;7.20;84.55
67015;BME280;1033;52.560;13.374;2023-05-08T01:39:37;102167.59;;;7.27;84.10
67015;BME280;1033;52.560;13.374;2023-05-08T01:42:12;102170.66;;;7.14;84.64
67015;BME280;1033;52.560;13.374;2023-05-08T01:44:46;102164.28;;;7.15;84.63
67015;BME280;1033;52.560;13.374;2023-05-08T01:47:18;102164.28;;;7.15;84.71
67015;BME280;1033;52.560;13.374;2023-05-08T01:49:55;102171.94;;;7.10;84.77
67015;BME280;1033;52.560;13.374;2023-05-08T01:52:31;102173.25;;;7.06;85.24
67015;BME280;1033;52.560;13.374;2023-05-08T01:55:03;102177.59;;;7.07;85.22
67015;BME280;1033;52.560;13.374;2023-05-08T01:57:39;102173.06;;;7.08;85.13
67015;BME280;1033;52.560;13.374;2023-05-08T02:00:10;102167.16;;;7.04;85.31
67015;BME280;1033;52.560;13.374;2023-05-08T02:02:41;102173.53;;;7.03;85.48
67015;BME280;1033;52.560;13.374;2023-05-08T02:05:14;102175.97;;;6.96;85.06
67015;BME280;1033;52.560;13.374;2023-05-08T02:07:47;102173.72;;;6.92;85.70
67015;BME280;1033;52.560;13.374;2023-05-08T02:10:18;102173.75;;;6.82;86.43
67015;BME280;1033;52.560;13.374;2023-05-08T02:12:48;102179.97;;;6.83;86.46
67015;BME280;1033;52.560;13.374;2023-05-08T02:15:18;102175.84;;;6.88;86.12
67015;BME280;1033;52.560;13.374;2023-05-08T02:17:50;102171.38;;;6.70;86.84
67015;BME280;1033;52.560;13.374;2023-05-08T02:20:22;102169.09;;;6.75;86.59
67015;BME280;1033;52.560;13.374;2023-05-08T02:22:51;102174.63;;;6.73;86.44
67015;BME280;1033;52.560;13.374;2023-05-08T02:25:20;102176.16;;;6.85;86.06
67015;BME280;1033;52.560;13.374;2023-05-08T02:27:52;102174.59;;;6.83;85.82
67015;BME280;1033;52.560;13.374;2023-05-08T02:30:23;102163.56;;;6.76;85.88
67015;BME280;1033;52.560;13.374;2023-05-08T02:32:54;102174.38;;;6.67;86.49
67015;BME280;1033;52.560;13.374;2023-05-08T02:35:30;102169.56;;;6.61;86.79
67015;BME280;1033;52.560;13.374;2023-05-08T02:38:00;102172.97;;;6.63;86.62
67015;BME280;1033;52.560;13.374;2023-05-08T02:40:31;102158.66;;;6.62;86.74
67015;BME280;1033;52.560;13.374;2023-05-08T02:43:00;102162.66;;;6.58;87.06
67015;BME280;1033;52.560;13.374;2023-05-08T02:45:35;102160.94;;;6.57;86.81
67015;BME280;1033;52.560;13.374;2023-05-08T02:48:10;102167.00;;;6.59;86.66
67015;BME280;1033;52.560;13.374;2023-05-08T02:50:48;102161.94;;;6.56;86.70
67015;BME280;1033;52.560;13.374;2023-05-08T02:53:26;102163.34;;;6.50;86.66
67015;BME280;1033;52.560;13.374;2023-05-08T02:56:05;102172.44;;;6.40;87.42
67015;BME280;1033;52.560;13.374;2023-05-08T02:58:41;102165.38;;;6.39;87.45
67015;BME280;1033;52.560;13.374;2023-05-08T03:01:19;102166.06;;;6.41;87.48
67015;BME280;1033;52.560;13.374;2023-05-08T03:03:54;102166.47;;;6.46;87.03
67015;BME280;1033;52.560;13.374;2023-05-08T03:06:34;102171.31;;;6.42;87.06
67015;BME280;1033;52.560;13.374;2023-05-08T03:09:06;102165.75;;;6.44;87.29
67015;BME280;1033;52.560;13.374;2023-05-08T03:11:41;102165.41;;;6.29;87.32
67015;BME280;1033;52.560;13.374;2023-05-08T03:14:14;102165.66;;;6.36;87.65
67015;BME280;1033;52.560;13.374;2023-05-08T03:16:47;102171.72;;;6.47;86.53
67015;BME280;1033;52.560;13.374;2023-05-08T03:19:21;102168.78;;;6.31;87.17
67015;BME280;1033;52.560;13.374;2023-05-08T03:21:53;102170.47;;;6.32;87.39
67015;BME280;1033;52.560;13.374;2023-05-08T03:24:24;102169.31;;;6.44;87.01
67015;BME280;1033;52.560;13.374;2023-05-08T03:26:55;102169.91;;;6.38;87.26
67015;BME280;1033;52.560;13.374;2023-05-08T03:29:26;102170.16;;;6.45;86.77
67015;BME280;1033;52.560;13.374;2023-05-08T03:31:57;102172.59;;;6.38;86.63
67015;BME280;1033;52.560;13.374;2023-05-08T03:34:29;102171.31;;;6.42;86.83
67015;BME280;1033;52.560;13.374;2023-05-08T03:37:00;102168.59;;;6.52;86.26
67015;BME280;1033;52.560;13.374;2023-05-08T03:39:29;102174.13;;;6.50;86.59
67015;BME280;1033;52.560;13.374;2023-05-08T03:41:58;102172.97;;;6.63;86.39
67015;BME280;1033;52.560;13.374;2023-05-08T03:44:29;102175.41;;;6.93;84.91
67015;BME280;1033;52.560;13.374;2023-05-08T03:47:00;102174.22;;;7.05;84.01
67015;BME280;1033;52.560;13.374;2023-05-08T03:49:30;102176.47;;;7.64;83.02
67015;BME280;1033;52.560;13.374;2023-05-08T03:52:02;102177.34;;;8.36;77.70
67015;BME280;1033;52.560;13.374;2023-05-08T03:54:31;102179.56;;;8.92;75.89
67015;BME280;1033;52.560;13.374;2023-05-08T03:57:00;102181.78;;;10.04;70.37
67015;BME280;1033;52.560;13.374;2023-05-08T03:59:37;102172.47;;;10.88;66.34
67015;BME280;1033;52.560;13.374;2023-05-08T04:02:20;102185.31;;;11.41;63.60
67015;BME280;1033;52.560;13.374;2023-05-08T04:04:59;102188.97;;;11.56;62.53
67015;BME280;1033;52.560;13.374;2023-05-08T04:07:37;102190.34;;;12.51;59.79
67015;BME280;1033;52.560;13.374;2023-05-08T04:10:15;102186.53;;;13.13;57.46
67015;BME280;1033;52.560;13.374;2023-05-08T04:12:52;102192.09;;;12.82;57.54
67015;BME280;1033;52.560;13.374;2023-05-08T04:15:24;102188.53;;;12.81;56.57
67015;BME280;1033;52.560;13.374;2023-05-08T04:17:58;102190.44;;;13.10;56.65
67015;BME280;1033;52.560;13.374;2023-05-08T04:20:32;102190.06;;;13.42;55.51
67015;BME280;1033;52.560;13.374;2023-05-08T04:23:03;102192.69;;;12.92;56.61
67015;BME280;1033;52.560;13.374;2023-05-08T04:25:36;102190.34;;;13.03;56.61
67015;BME280;1033;52.560;13.374;2023-05-08T04:28:06;102189.38;;;12.44;56.91
67015;BME280;1033;52.560;13.374;2023-05-08T04:30:38;102196.63;;;13.04;55.46
67015;BME280;1033;52.560;13.374;2023-05-08T04:33:07;102197.88;;;12.64;56.21
67015;BME280;1033;52.560;13.374;2023-05-08T04:35:37;102200.94;;;13.42;54.17
67015;BME280;1033;52.560;13.374;2023-05-08T04:38:08;102199.25;;;12.83;55.30
67015;BME280;1033;52.560;13.374;2023-05-08T04:40:37;102198.75;;;12.94;55.03
67015;BME280;1033;52.560;13.374;2023-05-08T04:43:08;102212.19;;;13.10;54.63
67015;BME280;1033;52.560;13.374;2023-05-08T04:45:37;102205.22;;;12.93;55.21
67015;BME280;1033;52.560;13.374;2023-05-08T04:48:06;102204.09;;;13.61;53.30
67015;BME280;1033;52.560;13.374;2023-05-08T04:50:35;102212.69;;;14.15;51.27
67015;BME280;1033;52.560;13.374;2023-05-08T04:53:04;102219.31;;;13.70;52.52
67015;BME280;1033;52.560;13.374;2023-05-08T04:55:35;102225.09;;;14.39;50.38
67015;BME280;1033;52.560;13.374;2023-05-08T04:58:04;102230.47;;;13.60;51.92
67015;BME280;1033;52.560;13.374;2023-05-08T05:00:34;102230.50;;;13.45;52.49
67015;BME280;1033;52.560;13.374;2023-05-08T05:03:03;102231.06;;;13.12;52.85
67015;BME280;1033;52.560;13.374;2023-05-08T05:05:34;102227.94;;;13.59;52.30
67015;BME280;1033;52.560;13.374;2023-05-08T05:08:06;102237.53;;;13.55;51.35
67015;BME280;1033;52.560;13.374;2023-05-08T05:10:37;102235.03;;;13.01;53.06
67015;BME280;1033;52.560;13.374;2023-05-08T05:13:07;102230.97;;;13.85;51.60
67015;BME280;1033;52.560;13.374;2023-05-08T05:15:35;102234.72;;;13.99;51.42
67015;BME280;1033;52.560;13.374;2023-05-08T05:18:04;102239.47;;;13.61;51.07
67015;BME280;1033;52.560;13.374;2023-05-08T05:20:34;102242.56;;;12.39;54.11
67015;BME280;1033;52.560;13.374;2023-05-08T05:23:04;102248.13;;;10.81;58.91
67015;BME280;1033;52.560;13.374;2023-05-08T05:25:35;102249.00;;;9.75;63.51
67015;BME280;1033;52.560;13.374;2023-05-08T05:28:04;102250.78;;;9.25;66.18
67015;BME280;1033;52.560;13.374;2023-05-08T05:30:33;102247.06;;;8.92;67.66
67015;BME280;1033;52.560;13.374;2023-05-08T05:33:03;102252.25;;;8.85;68.31
67015;BME280;1033;52.560;13.374;2023-05-08T05:35:33;102255.31;;;8.90;68.34
67015;BME280;1033;52.560;13.374;2023-05-08T05:38:02;102252.56;;;8.82;68.81
67015;BME280;1033;52.560;13.374;2023-05-08T05:40:31;102260.94;;;8.71;69.10
67015;BME280;1033;52.560;13.374;2023-05-08T05:43:02;102248.81;;;8.75;69.44
67015;BME280;1033;52.560;13.374;2023-05-08T05:45:31;102259.50;;;8.85;68.92
67015;BME280;1033;52.560;13.374;2023-05-08T05:48:00;102268.47;;;8.85;69.12
67015;BME280;1033;52.560;13.374;2023-05-08T05:50:32;102261.72;;;8.89;68.92
67015;BME280;1033;52.560;13.374;2023-05-08T05:53:02;102266.50;;;8.95;68.98
67015;BME280;1033;52.560;13.374;2023-05-08T05:55:31;102258.66;;;8.84;68.49
67015;BME280;1033;52.560;13.374;2023-05-08T05:58:03;102268.28;;;8.87;68.71
67015;BME280;1033;52.560;13.374;2023-05-08T06:00:33;102264.47;;;8.97;68.77
67015;BME280;1033;52.560;13.374;2023-05-08T06:03:03;102266.22;;;9.06;67.86
67015;BME280;1033;52.560;13.374;2023-05-08T06:05:32;102267.00;;;9.25;67.65
67015;BME280;1033;52.560;13.374;2023-05-08T06:08:01;102264.50;;;9.31;67.27
67015;BME280;1033;52.560;13.374;2023-05-08T06:10:30;102261.19;;;9.45;66.73
67015;BME280;1033;52.560;13.374;2023-05-08T06:12:59;102259.44;;;9.62;66.19
67015;BME280;1033;52.560;13.374;2023-05-08T06:15:30;102263.66;;;9.65;64.36
67015;BME280;1033;52.560;13.374;2023-05-08T06:17:59;102260.50;;;9.77;64.00
67015;BME280;1033;52.560;13.374;2023-05-08T06:20:28;102267.63;;;9.86;64.00
67015;BME280;1033;52.560;13.374;2023-05-08T06:22:57;102267.63;;;9.86;63.36
67015;BME280;1033;52.560;13.374;2023-05-08T06:25:26;102270.84;;;9.90;62.76
67015;BME280;1033;52.560;13.374;2023-05-08T06:27:55;102271.41;;;10.01;62.49
67015;BME280;1033;52.560;13.374;2023-05-08T06:30:24;102270.09;;;10.22;61.46
67015;BME280;1033;52.560;13.374;2023-05-08T06:32:55;102272.13;;;10.20;61.41
67015;BME280;1033;52.560;13.374;2023-05-08T06:35:24;102270.94;;;10.22;60.00
67015;BME280;1033;52.560;13.374;2023-05-08T06:37:53;102264.03;;;10.20;59.92
67015;BME280;1033;52.560;13.374;2023-05-08T06:40:22;102276.53;;;10.37;60.13
67015;BME280;1033;52.560;13.374;2023-05-08T06:42:51;102261.66;;;10.65;59.63
67015;BME280;1033;52.560;13.374;2023-05-08T06:45:20;102273.53;;;10.72;58.57
67015;BME280;1033;52.560;13.374;2023-05-08T06:47:49;102269.13;;;10.71;58.21
67015;BME280;1033;52.560;13.374;2023-05-08T06:50:20;102261.50;;;10.83;58.10
67015;BME280;1033;52.560;13.374;2023-05-08T06:52:57;102271.13;;;11.02;57.19
67015;BME280;1033;52.560;13.374;2023-05-08T06:55:27;102271.66;;;10.89;55.84
67015;BME280;1033;52.560;13.374;2023-05-08T06:57:59;102272.13;;;11.09;56.24
67015;BME280;1033;52.560;13.374;2023-05-08T07:00:29;102277.47;;;11.41;54.67
67015;BME280;1033;52.560;13.374;2023-05-08T07:03:01;102273.06;;;11.40;54.37
67015;BME280;1033;52.560;13.374;2023-05-08T07:05:34;102276.38;;;11.58;54.13
67015;BME280;1033;52.560;13.374;2023-05-08T07:08:05;102270.56;;;11.86;53.77
67015;BME280;1033;52.560;13.374;2023-05-08T07:10:40;102270.25;;;11.72;53.38
67015;BME280;1033;52.560;13.374;2023-05-08T07:13:11;102270.56;;;11.77;53.82
67015;BME280;1033;52.560;13.374;2023-05-08T07:15:42;102280.59;;;12.08;52.17
67015;BME280;1033;52.560;13.374;2023-05-08T07:18:13;102265.22;;;12.00;50.82
67015;BME280;1033;52.560;13.374;2023-05-08T07:20:46;102266.56;;;12.04;50.98
67015;BME280;1033;52.560;13.374;2023-05-08T07:23:16;102273.59;;;11.91;50.35
67015;BME280;1033;52.560;13.374;2023-05-08T07:25:47;102277.31;;;11.90;50.56
67015;BME280;1033;52.560;13.374;2023-05-08T07:28:19;102272.47;;;12.08;50.60
67015;BME280;1033;52.560;13.374;2023-05-08T07:30:50;102276.72;;;12.33;50.28
67015;BME280;1033;52.560;13.374;2023-05-08T07:33:21;102272.47;;;12.31;49.46
67015;BME280;1033;52.560;13.374;2023-05-08T07:35:53;102263.41;;;12.15;49.65
67015;BME280;1033;52.560;13.374;2023-05-08T07:38:24;102270.38;;;12.18;48.75
67015;BME280;1033;52.560;13.374;2023-05-08T07:40:55;102275.94;;;12.25;48.95
67015;BME280;1033;52.560;13.374;2023-05-08T07:43:27;102271.69;;;12.45;48.50
67015;BME280;1033;52.560;13.374;2023-05-08T07:45:59;102277.63;;;12.48;47.44
67015;BME280;1033;52.560;13.374;2023-05-08T07:48:30;102279.56;;;12.62;47.47
67015;BME280;1033;52.560;13.374;2023-05-08T07:51:04;102277.56;;;12.56;47.33
67015;BME280;1033;52.560;13.374;2023-05-08T07:53:37;102278.22;;;12.58;47.31
67015;BME280;1033;52.560;13.374;2023-05-08T07:56:08;102283.03;;;12.71;46.55
67015;BME280;1033;52.560;13.374;2023-05-08T07:58:40;102268.72;;;12.77;46.19
67015;BME280;1033;52.560;13.374;2023-05-08T08:01:14;102263.69;;;12.89;46.47
67015;BME280;1033;52.560;13.374;2023-05-08T08:03:47;102262.84;;;13.11;46.30
67015;BME280;1033;52.560;13.374;2023-05-08T08:06:22;102254.19;;;13.52;45.97
67015;BME280;1033;52.560;13.374;2023-05-08T08:08:54;102277.66;;;13.53;44.56
67015;BME280;1033;52.560;13.374;2023-05-08T08:11:25;102262.44;;;13.14;44.70
67015;BME280;1033;52.560;13.374;2023-05-08T08:13:57;102263.75;;;13.18;44.81
67015;BME280;1033;52.560;13.374;2023-05-08T08:16:29;102248.84;;;13.14;45.17
67015;BME280;1033;52.560;13.374;2023-05-08T08:19:00;102252.81;;;13.26;44.32
67015;BME280;1033;52.560;13.374;2023-05-08T08:21:33;102256.34;;;13.41;43.66
67015;BME280;1033;52.560;13.374;2023-05-08T08:24:04;102261.22;;;13.61;43.88
67015;BME280;1033;52.560;13.374;2023-05-08T08:26:35;102240.88;;;13.57;42.77
67015;BME280;1033;52.560;13.374;2023-05-08T08:29:07;102257.41;;;13.40;42.32
67015;BME280;1033;52.560;13.374;2023-05-08T08:31:39;102243.88;;;13.62;42.61
67015;BME280;1033;52.560;13.374;2023-05-08T08:34:10;102255.31;;;13.72;42.22
67015;BME280;1033;52.560;13.374;2023-05-08T08:36:43;102250.13;;;13.77;42.12
67015;BME280;1033;52.560;13.374;2023-05-08T08:39:12;102251.09;;;14.05;41.21
67015;BME280;1033;52.560;13.374;2023-05-08T08:41:47;102251.25;;;14.18;40.81
67015;BME280;1033;52.560;13.374;2023-05-08T08:44:19;102247.34;;;14.42;41.45
67015;BME280;1033;52.560;13.374;2023-05-08T08:46:50;102243.19;;;14.46;40.07
67015;BME280;1033;52.560;13.374;2023-05-08T08:49:28;102237.94;;;14.45;40.97
67015;BME280;1033;52.560;13.374;2023-05-08T08:52:05;102246.22;;;14.58;40.63
67015;BME280;1033;52.560;13.374;2023-05-08T08:54:37;102242.47;;;14.87;39.82
67015;BME280;1033;52.560;13.374;2023-05-08T08:57:10;102231.56;;;14.87;39.34
67015;BME280;1033;52.560;13.374;2023-05-08T08:59:42;102243.63;;;14.50;39.88
67015;BME280;1033;52.560;13.374;2023-05-08T09:02:14;102237.41;;;14.56;39.37
67015;BME280;1033;52.560;13.374;2023-05-08T09:04:46;102241.28;;;14.68;38.25
67015;BME280;1033;52.560;13.374;2023-05-08T09:07:20;102244.06;;;15.02;38.02
67015;BME280;1033;52.560;13.374;2023-05-08T09:09:52;102245.84;;;15.16;37.56
67015;BME280;1033;52.560;13.374;2023-05-08T09:12:25;102244.69;;;15.32;36.76
67015;BME280;1033;52.560;13.374;2023-05-08T09:14:55;102246.13;;;15.28;36.81
67015;BME280;1033;52.560;13.374;2023-05-08T09:17:25;102233.66;;;15.12;36.77
67015;BME280;1033;52.560;13.374;2023-05-08T09:19:55;102237.66;;;15.16;36.43
67015;BME280;1033;52.560;13.374;2023-05-08T09:22:28;102249.59;;;14.81;36.59
67015;BME280;1033;52.560;13.374;2023-05-08T09:25:00;102234.66;;;14.77;36.67
67015;BME280;1033;52.560;13.374;2023-05-08T09:27:31;102229.00;;;15.06;36.75
67015;BME280;1033;52.560;13.374;2023-05-08T09:30:02;102229.47;;;15.16;36.95
67015;BME280;1033;52.560;13.374;2023-05-08T09:32:34;102231.19;;;15.17;36.56
67015;BME280;1033;52.560;13.374;2023-05-08T09:35:05;102237.41;;;15.39;36.18
67015;BME280;1033;52.560;13.374;2023-05-08T09:37:40;102232.50;;;15.28;36.46
67015;BME280;1033;52.560;13.374;2023-05-08T09:40:15;102225.31;;;15.55;37.01
67015;BME280;1033;52.560;13.374;2023-05-08T09:42:48;102231.75;;;15.82;36.23
67015;BME280;1033;52.560;13.374;2023-05-08T09:45:28;102228.00;;;16.02;36.46
67015;BME280;1033;52.560;13.374;2023-05-08T09:47:59;102229.78;;;15.69;35.71
67015;BME280;1033;52.560;13.374;2023-05-08T09:50:30;102236.56;;;15.80;36.51
67015;BME280;1033;52.560;13.374;2023-05-08T09:53:02;102226.00;;;15.63;36.19
67015;BME280;1033;52.560;13.374;2023-05-08T09:55:47;102231.47;;;15.63;35.79
67015;BME280;1033;52.560;13.374;2023-05-08T09:58:17;102228.19;;;15.47;36.17
67015;BME280;1033;52.560;13.374;2023-05-08T10:00:47;102229.31;;;15.59;36.06
67015;BME280;1033;52.560;13.374;2023-05-08T10:03:17;102232.13;;;15.79;35.79
67015;BME280;1033;52.560;13.374;2023-05-08T10:05:48;102216.78;;;15.71;36.22
67015;BME280;1033;52.560;13.374;2023-05-08T10:08:21;102223.28;;;15.70;36.88
67015;BME280;1033;52.560;13.374;2023-05-08T10:10:52;102211.84;;;16.01;37.13
67015;BME280;1033;52.560;13.374;2023-05-08T10:13:21;102212.75;;;16.28;36.44
67015;BME280;1033;52.560;13.374;2023-05-08T10:15:54;102213.59;;;16.48;35.93
67015;BME280;1033;52.560;13.374;2023-05-08T10:18:29;102206.06;;;16.63;36.24
67015;BME280;1033;52.560;13.374;2023-05-08T10:21:06;102225.59;;;17.00;35.26
67015;BME280;1033;52.560;13.374;2023-05-08T10:23:39;102214.03;;;16.45;35.36
67015;BME280;1033;52.560;13.374;2023-05-08T10:26:13;102204.38;;;16.36;34.98
67015;BME280;1033;52.560;13.374;2023-05-08T10:28:52;102210.03;;;16.54;35.37
67015;BME280;1033;52.560;13.374;2023-05-08T10:31:26;102206.91;;;16.70;35.24
67015;BME280;1033;52.560;13.374;2023-05-08T10:33:57;102208.78;;;16.96;34.47
67015;BME280;1033;52.560;13.374;2023-05-08T10:36:28;102197.56;;;17.30;34.39
67015;BME280;1033;52.560;13.374;2023-05-08T10:39:00;102206.19;;;17.27;33.87
67015;BME280;1033;52.560;13.374;2023-05-08T10:41:30;102190.44;;;17.10;33.38
67015;BME280;1033;52.560;13.374;2023-05-08T10:44:01;102191.88;;;17.25;33.66
67015;BME280;1033;52.560;13.374;2023-05-08T10:46:38;102187.38;;;17.51;32.70
67015;BME280;1033;52.560;13.374;2023-05-08T10:49:17;102181.88;;;17.57;32.40
67015;BME280;1033;52.560;13.374;2023-05-08T10:51:55;102181.72;;;17.39;32.62
67015;BME280;1033;52.560;13.374;2023-05-08T10:54:37;102168.19;;;17.64;31.94
67015;BME280;1033;52.560;13.374;2023-05-08T10:57:11;102176.22;;;17.97;31.81
67015;BME280;1033;52.560;13.374;2023-05-08T10:59:45;102170.91;;;17.70;30.98
67015;BME280;1033;52.560;13.374;2023-05-08T11:02:15;102180.25;;;17.43;30.89
67015;BME280;1033;52.560;13.374;2023-05-08T11:04:45;102181.03;;;17.63;31.36
67015;BME280;1033;52.560;13.374;2023-05-08T11:07:16;102168.88;;;17.46;31.51
67015;BME280;1033;52.560;13.374;2023-05-08T11:09:47;102172.09;;;17.30;31.88
67015;BME280;1033;52.560;13.374;2023-05-08T11:12:22;102173.19;;;17.16;31.29
67015;BME280;1033;52.560;13.374;2023-05-08T11:15:00;102177.56;;;17.30;31.85
67015;BME280;1033;52.560;13.374;2023-05-08T11:17:30;102164.00;;;17.55;31.13
67015;BME280;1033;52.560;13.374;2023-05-08T11:20:01;102169.03;;;17.64;31.24
67015;BME280;1033;52.560;13.374;2023-05-08T11:22:32;102166.84;;;17.79;30.80
67015;BME280;1033;52.560;13.374;2023-05-08T11:25:05;102168.59;;;18.05;31.37
67015;BME280;1033;52.560;13.374;2023-05-08T11:30:33;102174.56;;;18.20;31.57
67015;BME280;1033;52.560;13.374;2023-05-08T11:33:13;102160.69;;;17.91;31.62
67015;BME280;1033;52.560;13.374;2023-05-08T11:35:48;102164.22;;;17.91;31.89
67015;BME280;1033;52.560;13.374;2023-05-08T11:38:21;102153.25;;;17.66;32.48
67015;BME280;1033;52.560;13.374;2023-05-08T11:40:58;102155.44;;;17.83;32.35
67015;BME280;1033;52.560;13.374;2023-05-08T11:46:50;102149.91;;;17.96;31.77
67015;BME280;1033;52.560;13.374;2023-05-08T11:49:22;102151.31;;;18.05;32.01
67015;BME280;1033;52.560;13.374;2023-05-08T11:51:57;102141.88;;;18.25;31.89
67015;BME280;1033;52.560;13.374;2023-05-08T11:54:29;102145.25;;;18.28;31.08
67015;BME280;1033;52.560;13.374;2023-05-08T11:57:03;102149.34;;;18.43;29.92
67015;BME280;1033;52.560;13.374;2023-05-08T11:59:35;102145.03;;;17.98;30.87
67015;BME280;1033;52.560;13.374;2023-05-08T12:02:05;102149.19;;;18.07;30.48
67015;BME280;1033;52.560;13.374;2023-05-08T12:04:43;102146.25;;;18.02;30.30
67015;BME280;1033;52.560;13.374;2023-05-08T12:07:14;102138.69;;;18.04;30.57
67015;BME280;1033;52.560;13.374;2023-05-08T12:09:45;102124.31;;;18.08;30.65
67015;BME280;1033;52.560;13.374;2023-05-08T12:12:16;102144.25;;;17.91;31.58
67015;BME280;1033;52.560;13.374;2023-05-08T12:14:49;102137.94;;;17.90;31.46
67015;BME280;1033;52.560;13.374;2023-05-08T12:17:19;102130.88;;;18.32;31.36
67015;BME280;1033;52.560;13.374;2023-05-08T12:19:53;102129.47;;;18.48;30.92
67015;BME280;1033;52.560;13.374;2023-05-08T12:22:23;102131.09;;;18.55;30.68
67015;BME280;1033;52.560;13.374;2023-05-08T12:24:53;102126.25;;;18.57;30.77
67015;BME280;1033;52.560;13.374;2023-05-08T12:27:26;102128.88;;;18.89;30.21
67015;BME280;1033;52.560;13.374;2023-05-08T12:29:57;102124.00;;;18.91;29.88
67015;BME280;1033;52.560;13.374;2023-05-08T12:32:27;102130.88;;;18.82;30.08
67015;BME280;1033;52.560;13.374;2023-05-08T12:34:59;102123.25;;;18.59;30.36
67015;BME280;1033;52.560;13.374;2023-05-08T12:37:29;102123.50;;;18.57;30.21
67015;BME280;1033;52.560;13.374;2023-05-08T12:39:59;102117.66;;;18.47;30.24
67015;BME280;1033;52.560;13.374;2023-05-08T12:42:43;102122.00;;;18.61;29.82
67015;BME280;1033;52.560;13.374;2023-05-08T12:45:17;102106.69;;;18.54;30.44
67015;BME280;1033;52.560;13.374;2023-05-08T12:47:48;102108.50;;;18.60;29.72
67015;BME280;1033;52.560;13.374;2023-05-08T12:50:20;102114.09;;;19.08;29.48
67015;BME280;1033;52.560;13.374;2023-05-08T12:52:53;102113.94;;;19.21;29.17
67015;BME280;1033;52.560;13.374;2023-05-08T12:55:23;102106.00;;;19.13;29.26
67015;BME280;1033;52.560;13.374;2023-05-08T12:58:02;102107.63;;;19.21;29.59
67015;BME280;1033;52.560;13.374;2023-05-08T13:00:37;102104.09;;;19.32;29.25
67015;BME280;1033;52.560;13.374;2023-05-08T13:03:10;102100.84;;;18.87;29.27
67015;BME280;1033;52.560;13.374;2023-05-08T13:05:42;102114.09;;;19.08;29.07
67015;BME280;1033;52.560;13.374;2023-05-08T13:08:11;102097.22;;;19.23;28.43
67015;BME280;1033;52.560;13.374;2023-05-08T13:10:49;102097.63;;;19.26;28.33
67015;BME280;1033;52.560;13.374;2023-05-08T13:13:30;102094.34;;;19.36;28.09
67015;BME280;1033;52.560;13.374;2023-05-08T13:16:03;102082.31;;;19.19;28.13
67015;BME280;1033;52.560;13.374;2023-05-08T13:18:33;102083.81;;;19.33;28.81
67015;BME280;1033;52.560;13.374;2023-05-08T13:21:04;102083.47;;;19.11;28.62
67015;BME280;1033;52.560;13.374;2023-05-08T13:23:34;102073.41;;;19.05;29.04
67015;BME280;1033;52.560;13.374;2023-05-08T13:26:03;102067.16;;;19.16;29.27
67015;BME280;1033;52.560;13.374;2023-05-08T13:28:34;102059.19;;;19.44;29.23
67015;BME280;1033;52.560;13.374;2023-05-08T13:31:07;102067.31;;;19.51;29.00